sensor_id;sensor_type;location;lat;lon;timestamp;P1;durP1;ratioP1;P2;durP2;ratioP2
14698;SDS011;7439;50.804;4.602;2023-04-03T00:00:42;26.03;;;20.50;;
14698;SDS011;7439;50.804;4.602;2023-04-03T00:03:09;24.57;;;21.97;;
14698;SDS011;7439;50.804;4.602;2023-04-03T00:05:37;21.77;;;19.33;;
14698;SDS011;7439;50.804;4.602;2023-04-03T00:08:04;22.10;;;19.90;;
14698;SDS011;7439;50.804;4.602;2023-04-03T00:10:34;23.97;;;21.37;;
14698;SDS011;7439;50.804;4.602;2023-04-03T00:13:02;26.03;;;21.53;;
14698;SDS011;7439;50.804;4.602;2023-04-03T00:15:29;23.43;;;20.80;;
14698;SDS011;7439;50.804;4.602;2023-04-03T00:17:57;24.90;;;21.60;;
14698;SDS011;7439;50.804;4.602;2023-04-03T00:20:25;23.03;;;20.73;;
14698;SDS011;7439;50.804;4.602;2023-04-03T00:22:52;20.73;;;18.57;;
14698;SDS011;7439;50.804;4.602;2023-04-03T00:25:20;20.40;;;18.20;;
14698;SDS011;7439;50.804;4.602;2023-04-03T00:27:49;23.70;;;20.13;;
14698;SDS011;7439;50.804;4.602;2023-04-03T00:30:17;20.17;;;18.17;;
14698;SDS011;7439;50.804;4.602;2023-04-03T00:32:46;21.00;;;18.83;;
14698;SDS011;7439;50.804;4.602;2023-04-03T00:35:14;18.60;;;16.67;;
14698;SDS011;7439;50.804;4.602;2023-04-03T00:37:41;20.07;;;17.90;;
14698;SDS011;7439;50.804;4.602;2023-04-03T00:40:09;20.63;;;17.70;;
14698;SDS011;7439;50.804;4.602;2023-04-03T00:42:37;19.87;;;17.97;;
14698;SDS011;7439;50.804;4.602;2023-04-03T00:45:24;17.83;;;16.00;;
14698;SDS011;7439;50.804;4.602;2023-04-03T00:47:52;20.40;;;17.40;;
14698;SDS011;7439;50.804;4.602;2023-04-03T00:50:19;17.80;;;15.83;;
14698;SDS011;7439;50.804;4.602;2023-04-03T00:52:47;18.40;;;16.60;;
14698;SDS011;7439;50.804;4.602;2023-04-03T00:55:14;19.20;;;17.03;;
14698;SDS011;7439;50.804;4.602;2023-04-03T00:57:42;19.47;;;17.60;;
14698;SDS011;7439;50.804;4.602;2023-04-03T01:00:11;18.13;;;16.27;;
14698;SDS011;7439;50.804;4.602;2023-04-03T01:02:41;19.97;;;17.60;;
14698;SDS011;7439;50.804;4.602;2023-04-03T01:05:08;21.07;;;18.27;;
14698;SDS011;7439;50.804;4.602;2023-04-03T01:07:36;21.30;;;17.87;;
14698;SDS011;7439;50.804;4.602;2023-04-03T01:10:04;18.70;;;16.80;;
14698;SDS011;7439;50.804;4.602;2023-04-03T01:12:33;18.07;;;16.27;;
14698;SDS011;7439;50.804;4.602;2023-04-03T01:15:01;19.53;;;17.57;;
14698;SDS011;7439;50.804;4.602;2023-04-03T01:17:31;21.63;;;18.93;;
14698;SDS011;7439;50.804;4.602;2023-04-03T01:20:12;20.07;;;17.77;;
14698;SDS011;7439;50.804;4.602;2023-04-03T01:22:42;19.57;;;17.60;;
14698;SDS011;7439;50.804;4.602;2023-04-03T01:25:13;20.20;;;18.10;;
14698;SDS011;7439;50.804;4.602;2023-04-03T01:27:40;21.07;;;17.97;;
14698;SDS011;7439;50.804;4.602;2023-04-03T01:30:08;21.83;;;16.80;;
14698;SDS011;7439;50.804;4.602;2023-04-03T01:32:37;21.90;;;18.23;;
14698;SDS011;7439;50.804;4.602;2023-04-03T01:35:06;21.83;;;18.33;;
14698;SDS011;7439;50.804;4.602;2023-04-03T01:37:34;19.13;;;17.20;;
14698;SDS011;7439;50.804;4.602;2023-04-03T01:40:02;22.17;;;18.10;;
14698;SDS011;7439;50.804;4.602;2023-04-03T01:42:30;18.33;;;16.43;;
14698;SDS011;7439;50.804;4.602;2023-04-03T01:44:57;19.57;;;17.57;;
14698;SDS011;7439;50.804;4.602;2023-04-03T01:47:25;20.03;;;17.53;;
14698;SDS011;7439;50.804;4.602;2023-04-03T01:49:54;30.97;;;18.70;;
14698;SDS011;7439;50.804;4.602;2023-04-03T01:52:21;20.93;;;18.73;;
14698;SDS011;7439;50.804;4.602;2023-04-03T01:54:48;21.17;;;18.73;;
14698;SDS011;7439;50.804;4.602;2023-04-03T01:57:16;20.83;;;17.23;;
14698;SDS011;7439;50.804;4.602;2023-04-03T01:59:44;20.73;;;18.57;;
14698;SDS011;7439;50.804;4.602;2023-04-03T02:02:11;18.90;;;16.97;;
14698;SDS011;7439;50.804;4.602;2023-04-03T02:04:39;18.83;;;16.90;;
14698;SDS011;7439;50.804;4.602;2023-04-03T02:07:08;19.60;;;17.70;;
14698;SDS011;7439;50.804;4.602;2023-04-03T02:09:35;20.03;;;16.37;;
14698;SDS011;7439;50.804;4.602;2023-04-03T02:12:03;19.30;;;17.27;;
14698;SDS011;7439;50.804;4.602;2023-04-03T02:14:30;28.27;;;18.13;;
14698;SDS011;7439;50.804;4.602;2023-04-03T02:16:59;21.87;;;19.50;;
14698;SDS011;7439;50.804;4.602;2023-04-03T02:19:30;22.50;;;18.47;;
14698;SDS011;7439;50.804;4.602;2023-04-03T02:21:57;21.17;;;17.40;;
14698;SDS011;7439;50.804;4.602;2023-04-03T02:24:26;24.47;;;19.60;;
14698;SDS011;7439;50.804;4.602;2023-04-03T02:26:53;20.17;;;17.93;;
14698;SDS011;7439;50.804;4.602;2023-04-03T02:29:21;21.53;;;18.67;;
14698;SDS011;7439;50.804;4.602;2023-04-03T02:31:48;22.80;;;18.33;;
14698;SDS011;7439;50.804;4.602;2023-04-03T02:34:16;23.47;;;18.40;;
14698;SDS011;7439;50.804;4.602;2023-04-03T02:36:43;22.07;;;18.00;;
14698;SDS011;7439;50.804;4.602;2023-04-03T02:39:11;20.00;;;17.87;;
14698;SDS011;7439;50.804;4.602;2023-04-03T02:41:40;21.13;;;18.97;;
14698;SDS011;7439;50.804;4.602;2023-04-03T02:44:11;23.53;;;19.67;;
14698;SDS011;7439;50.804;4.602;2023-04-03T02:46:39;20.97;;;18.73;;
14698;SDS011;7439;50.804;4.602;2023-04-03T02:49:06;21.33;;;18.57;;
14698;SDS011;7439;50.804;4.602;2023-04-03T02:51:33;24.30;;;19.83;;
14698;SDS011;7439;50.804;4.602;2023-04-03T02:54:01;26.10;;;19.03;;
14698;SDS011;7439;50.804;4.602;2023-04-03T02:56:29;22.57;;;19.57;;
14698;SDS011;7439;50.804;4.602;2023-04-03T02:58:57;22.97;;;18.80;;
14698;SDS011;7439;50.804;4.602;2023-04-03T03:01:25;24.10;;;18.80;;
14698;SDS011;7439;50.804;4.602;2023-04-03T03:03:56;21.57;;;18.27;;
14698;SDS011;7439;50.804;4.602;2023-04-03T03:06:23;26.13;;;17.67;;
14698;SDS011;7439;50.804;4.602;2023-04-03T03:08:51;24.93;;;18.07;;
14698;SDS011;7439;50.804;4.602;2023-04-03T03:11:18;25.13;;;18.27;;
14698;SDS011;7439;50.804;4.602;2023-04-03T03:13:46;20.93;;;17.77;;
14698;SDS011;7439;50.804;4.602;2023-04-03T03:16:15;24.57;;;17.73;;
14698;SDS011;7439;50.804;4.602;2023-04-03T03:18:42;22.20;;;18.30;;
14698;SDS011;7439;50.804;4.602;2023-04-03T03:21:10;20.83;;;18.57;;
14698;SDS011;7439;50.804;4.602;2023-04-03T03:23:37;20.70;;;18.50;;
14698;SDS011;7439;50.804;4.602;2023-04-03T03:26:05;21.10;;;18.83;;
14698;SDS011;7439;50.804;4.602;2023-04-03T03:28:33;20.50;;;17.90;;
14698;SDS011;7439;50.804;4.602;2023-04-03T03:31:01;22.20;;;17.97;;
14698;SDS011;7439;50.804;4.602;2023-04-03T03:33:30;21.93;;;18.77;;
14698;SDS011;7439;50.804;4.602;2023-04-03T03:35:57;21.37;;;18.93;;
14698;SDS011;7439;50.804;4.602;2023-04-03T03:38:25;23.13;;;18.20;;
14698;SDS011;7439;50.804;4.602;2023-04-03T03:40:52;20.33;;;18.10;;
14698;SDS011;7439;50.804;4.602;2023-04-03T03:43:22;20.60;;;18.30;;
14698;SDS011;7439;50.804;4.602;2023-04-03T03:45:50;21.23;;;18.43;;
14698;SDS011;7439;50.804;4.602;2023-04-03T03:48:18;20.43;;;18.23;;
14698;SDS011;7439;50.804;4.602;2023-04-03T03:50:47;23.67;;;17.77;;
14698;SDS011;7439;50.804;4.602;2023-04-03T03:53:14;23.87;;;18.17;;
14698;SDS011;7439;50.804;4.602;2023-04-03T03:55:42;21.47;;;18.50;;
14698;SDS011;7439;50.804;4.602;2023-04-03T03:58:09;19.77;;;17.57;;
14698;SDS011;7439;50.804;4.602;2023-04-03T04:00:37;20.13;;;17.97;;
14698;SDS011;7439;50.804;4.602;2023-04-03T04:03:04;23.73;;;17.87;;
14698;SDS011;7439;50.804;4.602;2023-04-03T04:05:31;20.27;;;17.97;;
14698;SDS011;7439;50.804;4.602;2023-04-03T04:08:00;23.10;;;17.87;;
14698;SDS011;7439;50.804;4.602;2023-04-03T04:10:28;21.10;;;18.03;;
14698;SDS011;7439;50.804;4.602;2023-04-03T04:12:55;25.13;;;18.60;;
14698;SDS011;7439;50.804;4.602;2023-04-03T04:15:23;21.80;;;17.80;;
14698;SDS011;7439;50.804;4.602;2023-04-03T04:17:52;21.93;;;17.97;;
14698;SDS011;7439;50.804;4.602;2023-04-03T04:20:19;24.93;;;17.77;;
14698;SDS011;7439;50.804;4.602;2023-04-03T04:22:47;24.80;;;18.13;;
14698;SDS011;7439;50.804;4.602;2023-04-03T04:25:15;23.90;;;18.83;;
14698;SDS011;7439;50.804;4.602;2023-04-03T04:27:43;24.03;;;18.00;;
14698;SDS011;7439;50.804;4.602;2023-04-03T04:30:11;22.43;;;17.13;;
14698;SDS011;7439;50.804;4.602;2023-04-03T04:32:38;22.07;;;18.07;;
14698;SDS011;7439;50.804;4.602;2023-04-03T04:35:06;24.57;;;17.67;;
14698;SDS011;7439;50.804;4.602;2023-04-03T04:37:33;20.23;;;17.90;;
14698;SDS011;7439;50.804;4.602;2023-04-03T04:40:01;23.03;;;18.47;;
14698;SDS011;7439;50.804;4.602;2023-04-03T04:42:30;20.77;;;18.00;;
14698;SDS011;7439;50.804;4.602;2023-04-03T04:44:57;24.07;;;18.80;;
14698;SDS011;7439;50.804;4.602;2023-04-03T04:47:24;23.10;;;18.23;;
14698;SDS011;7439;50.804;4.602;2023-04-03T04:49:52;21.17;;;17.00;;
14698;SDS011;7439;50.804;4.602;2023-04-03T04:52:19;20.87;;;17.77;;
14698;SDS011;7439;50.804;4.602;2023-04-03T04:54:47;19.13;;;16.60;;
14698;SDS011;7439;50.804;4.602;2023-04-03T04:57:14;21.00;;;17.90;;
14698;SDS011;7439;50.804;4.602;2023-04-03T04:59:44;23.93;;;18.60;;
14698;SDS011;7439;50.804;4.602;2023-04-03T05:02:11;22.57;;;18.33;;
14698;SDS011;7439;50.804;4.602;2023-04-03T05:04:38;21.37;;;18.83;;
14698;SDS011;7439;50.804;4.602;2023-04-03T05:07:06;24.23;;;20.00;;
14698;SDS011;7439;50.804;4.602;2023-04-03T05:09:33;25.53;;;20.73;;
14698;SDS011;7439;50.804;4.602;2023-04-03T05:12:01;28.97;;;21.90;;
14698;SDS011;7439;50.804;4.602;2023-04-03T05:14:28;30.13;;;21.67;;
14698;SDS011;7439;50.804;4.602;2023-04-03T05:16:57;26.30;;;20.60;;
14698;SDS011;7439;50.804;4.602;2023-04-03T05:19:25;26.27;;;21.33;;
14698;SDS011;7439;50.804;4.602;2023-04-03T05:21:52;26.43;;;20.33;;
14698;SDS011;7439;50.804;4.602;2023-04-03T05:24:20;28.83;;;21.00;;
14698;SDS011;7439;50.804;4.602;2023-04-03T05:26:47;28.37;;;24.00;;
14698;SDS011;7439;50.804;4.602;2023-04-03T05:29:15;28.67;;;23.50;;
14698;SDS011;7439;50.804;4.602;2023-04-03T05:31:42;30.63;;;24.30;;
14698;SDS011;7439;50.804;4.602;2023-04-03T05:34:11;34.80;;;24.57;;
14698;SDS011;7439;50.804;4.602;2023-04-03T05:36:38;34.93;;;28.57;;
14698;SDS011;7439;50.804;4.602;2023-04-03T05:39:06;33.37;;;25.50;;
14698;SDS011;7439;50.804;4.602;2023-04-03T05:41:34;38.27;;;28.17;;
14698;SDS011;7439;50.804;4.602;2023-04-03T05:44:01;30.93;;;24.50;;
14698;SDS011;7439;50.804;4.602;2023-04-03T05:46:29;30.23;;;21.73;;
14698;SDS011;7439;50.804;4.602;2023-04-03T05:48:56;36.93;;;26.50;;
14698;SDS011;7439;50.804;4.602;2023-04-03T05:51:27;44.43;;;33.90;;
14698;SDS011;7439;50.804;4.602;2023-04-03T05:53:56;45.13;;;32.20;;
14698;SDS011;7439;50.804;4.602;2023-04-03T05:56:26;44.73;;;34.13;;
14698;SDS011;7439;50.804;4.602;2023-04-03T05:58:53;51.80;;;36.43;;
14698;SDS011;7439;50.804;4.602;2023-04-03T06:01:20;43.77;;;31.60;;
14698;SDS011;7439;50.804;4.602;2023-04-03T06:03:48;33.57;;;26.83;;
14698;SDS011;7439;50.804;4.602;2023-04-03T06:06:16;33.03;;;23.93;;
14698;SDS011;7439;50.804;4.602;2023-04-03T06:08:45;35.87;;;26.97;;
14698;SDS011;7439;50.804;4.602;2023-04-03T06:11:13;36.47;;;25.97;;
14698;SDS011;7439;50.804;4.602;2023-04-03T06:13:40;30.50;;;24.63;;
14698;SDS011;7439;50.804;4.602;2023-04-03T06:16:08;30.83;;;24.23;;
14698;SDS011;7439;50.804;4.602;2023-04-03T06:18:35;27.47;;;23.03;;
14698;SDS011;7439;50.804;4.602;2023-04-03T06:21:03;30.93;;;22.87;;
14698;SDS011;7439;50.804;4.602;2023-04-03T06:23:32;35.67;;;25.53;;
14698;SDS011;7439;50.804;4.602;2023-04-03T06:26:01;34.17;;;24.27;;
14698;SDS011;7439;50.804;4.602;2023-04-03T06:28:29;29.80;;;24.37;;
14698;SDS011;7439;50.804;4.602;2023-04-03T06:30:56;31.77;;;24.03;;
14698;SDS011;7439;50.804;4.602;2023-04-03T06:33:23;32.37;;;23.40;;
14698;SDS011;7439;50.804;4.602;2023-04-03T06:35:55;28.67;;;23.57;;
14698;SDS011;7439;50.804;4.602;2023-04-03T06:38:22;34.67;;;25.57;;
14698;SDS011;7439;50.804;4.602;2023-04-03T06:40:50;34.10;;;23.90;;
14698;SDS011;7439;50.804;4.602;2023-04-03T06:43:19;31.07;;;24.67;;
14698;SDS011;7439;50.804;4.602;2023-04-03T06:45:47;31.23;;;24.07;;
14698;SDS011;7439;50.804;4.602;2023-04-03T06:48:14;31.53;;;25.97;;
14698;SDS011;7439;50.804;4.602;2023-04-03T06:50:42;30.67;;;25.67;;
14698;SDS011;7439;50.804;4.602;2023-04-03T06:53:09;30.67;;;25.20;;
14698;SDS011;7439;50.804;4.602;2023-04-03T06:55:37;35.47;;;28.50;;
14698;SDS011;7439;50.804;4.602;2023-04-03T06:58:04;40.93;;;34.57;;
14698;SDS011;7439;50.804;4.602;2023-04-03T07:00:33;50.47;;;36.23;;
14698;SDS011;7439;50.804;4.602;2023-04-03T07:03:01;45.63;;;38.07;;
14698;SDS011;7439;50.804;4.602;2023-04-03T07:05:28;50.30;;;41.33;;
14698;SDS011;7439;50.804;4.602;2023-04-03T07:07:56;50.20;;;43.13;;
14698;SDS011;7439;50.804;4.602;2023-04-03T07:10:23;50.77;;;42.27;;
14698;SDS011;7439;50.804;4.602;2023-04-03T07:12:51;52.80;;;47.10;;
14698;SDS011;7439;50.804;4.602;2023-04-03T07:15:18;55.37;;;49.43;;
14698;SDS011;7439;50.804;4.602;2023-04-03T07:17:47;65.33;;;58.57;;
14698;SDS011;7439;50.804;4.602;2023-04-03T07:20:15;63.93;;;57.73;;
14698;SDS011;7439;50.804;4.602;2023-04-03T07:22:42;66.37;;;59.97;;
14698;SDS011;7439;50.804;4.602;2023-04-03T07:25:10;66.33;;;60.47;;
14698;SDS011;7439;50.804;4.602;2023-04-03T07:27:37;73.03;;;66.50;;
14698;SDS011;7439;50.804;4.602;2023-04-03T07:30:05;75.10;;;68.53;;
14698;SDS011;7439;50.804;4.602;2023-04-03T07:32:33;75.43;;;69.13;;
14698;SDS011;7439;50.804;4.602;2023-04-03T07:35:02;85.87;;;79.37;;
14698;SDS011;7439;50.804;4.602;2023-04-03T07:37:29;85.47;;;78.43;;
14698;SDS011;7439;50.804;4.602;2023-04-03T07:39:57;80.57;;;74.47;;
14698;SDS011;7439;50.804;4.602;2023-04-03T07:42:25;72.17;;;66.73;;
14698;SDS011;7439;50.804;4.602;2023-04-03T07:44:52;77.20;;;71.63;;
14698;SDS011;7439;50.804;4.602;2023-04-03T07:47:20;83.40;;;77.80;;
14698;SDS011;7439;50.804;4.602;2023-04-03T07:49:48;82.67;;;77.07;;
14698;SDS011;7439;50.804;4.602;2023-04-03T07:52:17;75.67;;;70.77;;
14698;SDS011;7439;50.804;4.602;2023-04-03T07:54:44;80.20;;;74.93;;
14698;SDS011;7439;50.804;4.602;2023-04-03T07:57:12;77.77;;;72.67;;
14698;SDS011;7439;50.804;4.602;2023-04-03T07:59:39;67.37;;;63.50;;
14698;SDS011;7439;50.804;4.602;2023-04-03T08:02:08;64.23;;;60.17;;
14698;SDS011;7439;50.804;4.602;2023-04-03T08:04:36;54.77;;;51.40;;
14698;SDS011;7439;50.804;4.602;2023-04-03T08:07:03;52.53;;;49.43;;
14698;SDS011;7439;50.804;4.602;2023-04-03T08:09:32;49.73;;;46.97;;
14698;SDS011;7439;50.804;4.602;2023-04-03T08:12:00;48.30;;;45.63;;
14698;SDS011;7439;50.804;4.602;2023-04-03T08:14:27;45.70;;;43.10;;
14698;SDS011;7439;50.804;4.602;2023-04-03T08:16:59;44.40;;;41.87;;
14698;SDS011;7439;50.804;4.602;2023-04-03T08:19:28;48.27;;;45.90;;
14698;SDS011;7439;50.804;4.602;2023-04-03T08:21:55;47.30;;;44.53;;
14698;SDS011;7439;50.804;4.602;2023-04-03T08:24:23;42.60;;;40.33;;
14698;SDS011;7439;50.804;4.602;2023-04-03T08:26:52;47.17;;;44.70;;
14698;SDS011;7439;50.804;4.602;2023-04-03T08:29:21;43.37;;;41.17;;
14698;SDS011;7439;50.804;4.602;2023-04-03T08:31:48;44.63;;;42.33;;
14698;SDS011;7439;50.804;4.602;2023-04-03T08:34:16;31.40;;;29.60;;
14698;SDS011;7439;50.804;4.602;2023-04-03T08:36:43;30.50;;;28.70;;
14698;SDS011;7439;50.804;4.602;2023-04-03T08:39:11;29.40;;;27.90;;
14698;SDS011;7439;50.804;4.602;2023-04-03T08:41:39;35.53;;;33.33;;
14698;SDS011;7439;50.804;4.602;2023-04-03T08:44:11;19.87;;;18.57;;
14698;SDS011;7439;50.804;4.602;2023-04-03T08:46:45;23.13;;;21.53;;
14698;SDS011;7439;50.804;4.602;2023-04-03T08:49:16;14.07;;;12.67;;
14698;SDS011;7439;50.804;4.602;2023-04-03T08:51:46;9.97;;;9.10;;
14698;SDS011;7439;50.804;4.602;2023-04-03T08:54:15;6.80;;;6.23;;
14698;SDS011;7439;50.804;4.602;2023-04-03T08:56:47;7.40;;;6.80;;
14698;SDS011;7439;50.804;4.602;2023-04-03T08:59:17;7.53;;;6.00;;
14698;SDS011;7439;50.804;4.602;2023-04-03T09:01:47;5.80;;;4.13;;
14698;SDS011;7439;50.804;4.602;2023-04-03T09:04:14;6.87;;;4.57;;
14698;SDS011;7439;50.804;4.602;2023-04-03T09:06:44;6.53;;;3.77;;
14698;SDS011;7439;50.804;4.602;2023-04-03T09:09:15;6.87;;;3.70;;
14698;SDS011;7439;50.804;4.602;2023-04-03T09:11:45;5.03;;;3.73;;
14698;SDS011;7439;50.804;4.602;2023-04-03T09:14:15;4.67;;;3.70;;
14698;SDS011;7439;50.804;4.602;2023-04-03T09:16:49;5.93;;;3.87;;
14698;SDS011;7439;50.804;4.602;2023-04-03T09:19:18;7.20;;;3.60;;
14698;SDS011;7439;50.804;4.602;2023-04-03T09:21:48;5.93;;;3.43;;
14698;SDS011;7439;50.804;4.602;2023-04-03T09:24:16;7.93;;;3.77;;
14698;SDS011;7439;50.804;4.602;2023-04-03T09:26:44;6.13;;;3.70;;
14698;SDS011;7439;50.804;4.602;2023-04-03T09:29:14;6.23;;;3.77;;
14698;SDS011;7439;50.804;4.602;2023-04-03T09:31:43;5.00;;;3.70;;
14698;SDS011;7439;50.804;4.602;2023-04-03T09:34:15;6.97;;;3.30;;
14698;SDS011;7439;50.804;4.602;2023-04-03T09:36:46;5.57;;;3.33;;
14698;SDS011;7439;50.804;4.602;2023-04-03T09:39:15;4.83;;;3.13;;
14698;SDS011;7439;50.804;4.602;2023-04-03T09:41:42;5.27;;;3.47;;
14698;SDS011;7439;50.804;4.602;2023-04-03T09:44:22;4.90;;;2.77;;
14698;SDS011;7439;50.804;4.602;2023-04-03T09:46:51;6.50;;;3.77;;
14698;SDS011;7439;50.804;4.602;2023-04-03T09:49:20;4.70;;;3.27;;
14698;SDS011;7439;50.804;4.602;2023-04-03T09:51:47;5.27;;;3.37;;
14698;SDS011;7439;50.804;4.602;2023-04-03T09:54:25;3.50;;;3.13;;
14698;SDS011;7439;50.804;4.602;2023-04-03T09:56:53;5.27;;;3.30;;
14698;SDS011;7439;50.804;4.602;2023-04-03T09:59:21;4.73;;;3.53;;
14698;SDS011;7439;50.804;4.602;2023-04-03T10:01:56;5.20;;;3.43;;
14698;SDS011;7439;50.804;4.602;2023-04-03T10:04:25;3.93;;;3.47;;
14698;SDS011;7439;50.804;4.602;2023-04-03T10:07:03;5.27;;;3.60;;
14698;SDS011;7439;50.804;4.602;2023-04-03T10:09:31;3.77;;;3.33;;
14698;SDS011;7439;50.804;4.602;2023-04-03T10:12:02;5.60;;;3.53;;
14698;SDS011;7439;50.804;4.602;2023-04-03T10:14:31;5.67;;;3.97;;
14698;SDS011;7439;50.804;4.602;2023-04-03T10:17:01;3.77;;;3.20;;
14698;SDS011;7439;50.804;4.602;2023-04-03T10:19:33;5.90;;;3.70;;
14698;SDS011;7439;50.804;4.602;2023-04-03T10:22:02;7.93;;;3.10;;
14698;SDS011;7439;50.804;4.602;2023-04-03T10:24:33;3.73;;;3.33;;
14698;SDS011;7439;50.804;4.602;2023-04-03T10:27:04;5.10;;;2.93;;
14698;SDS011;7439;50.804;4.602;2023-04-03T10:29:40;4.83;;;3.40;;
14698;SDS011;7439;50.804;4.602;2023-04-03T10:32:13;5.33;;;3.07;;
14698;SDS011;7439;50.804;4.602;2023-04-03T10:34:44;4.10;;;3.70;;
14698;SDS011;7439;50.804;4.602;2023-04-03T10:37:13;8.20;;;3.77;;
14698;SDS011;7439;50.804;4.602;2023-04-03T10:39:46;4.50;;;3.07;;
14698;SDS011;7439;50.804;4.602;2023-04-03T10:42:18;4.53;;;2.77;;
14698;SDS011;7439;50.804;4.602;2023-04-03T10:44:52;6.50;;;3.30;;
14698;SDS011;7439;50.804;4.602;2023-04-03T10:47:24;2.90;;;2.60;;
14698;SDS011;7439;50.804;4.602;2023-04-03T10:49:59;3.13;;;2.83;;
14698;SDS011;7439;50.804;4.602;2023-04-03T10:52:29;4.97;;;3.27;;
14698;SDS011;7439;50.804;4.602;2023-04-03T10:55:01;5.03;;;3.30;;
14698;SDS011;7439;50.804;4.602;2023-04-03T10:57:30;4.13;;;2.37;;
14698;SDS011;7439;50.804;4.602;2023-04-03T10:59:59;4.30;;;2.70;;
14698;SDS011;7439;50.804;4.602;2023-04-03T11:02:29;2.40;;;2.20;;
14698;SDS011;7439;50.804;4.602;2023-04-03T11:04:59;3.93;;;2.80;;
14698;SDS011;7439;50.804;4.602;2023-04-03T11:07:28;5.03;;;3.07;;
14698;SDS011;7439;50.804;4.602;2023-04-03T11:09:58;3.40;;;2.80;;
14698;SDS011;7439;50.804;4.602;2023-04-03T11:12:32;3.87;;;2.93;;
14698;SDS011;7439;50.804;4.602;2023-04-03T11:15:01;4.77;;;2.93;;
14698;SDS011;7439;50.804;4.602;2023-04-03T11:17:31;3.23;;;2.70;;
14698;SDS011;7439;50.804;4.602;2023-04-03T11:20:03;4.77;;;2.90;;
14698;SDS011;7439;50.804;4.602;2023-04-03T11:22:33;2.60;;;2.33;;
14698;SDS011;7439;50.804;4.602;2023-04-03T11:25:03;2.63;;;2.43;;
14698;SDS011;7439;50.804;4.602;2023-04-03T11:27:33;4.87;;;3.03;;
14698;SDS011;7439;50.804;4.602;2023-04-03T11:30:03;2.37;;;2.10;;
14698;SDS011;7439;50.804;4.602;2023-04-03T11:32:37;6.10;;;2.63;;
14698;SDS011;7439;50.804;4.602;2023-04-03T11:35:08;2.90;;;2.23;;
14698;SDS011;7439;50.804;4.602;2023-04-03T11:37:38;3.87;;;2.37;;
14698;SDS011;7439;50.804;4.602;2023-04-03T11:40:07;5.70;;;2.97;;
14698;SDS011;7439;50.804;4.602;2023-04-03T11:42:37;4.23;;;2.60;;
14698;SDS011;7439;50.804;4.602;2023-04-03T11:45:17;5.40;;;3.37;;
14698;SDS011;7439;50.804;4.602;2023-04-03T11:47:50;5.77;;;2.93;;
14698;SDS011;7439;50.804;4.602;2023-04-03T11:50:37;3.67;;;2.60;;
14698;SDS011;7439;50.804;4.602;2023-04-03T11:58:37;3.10;;;2.60;;
14698;SDS011;7439;50.804;4.602;2023-04-03T12:01:08;2.77;;;2.20;;
14698;SDS011;7439;50.804;4.602;2023-04-03T12:09:09;3.13;;;2.63;;
14698;SDS011;7439;50.804;4.602;2023-04-03T12:11:49;3.47;;;2.60;;
14698;SDS011;7439;50.804;4.602;2023-04-03T12:14:17;4.57;;;2.70;;
14698;SDS011;7439;50.804;4.602;2023-04-03T12:16:45;8.23;;;2.30;;
14698;SDS011;7439;50.804;4.602;2023-04-03T12:22:15;5.13;;;2.77;;
14698;SDS011;7439;50.804;4.602;2023-04-03T12:24:47;2.87;;;2.33;;
14698;SDS011;7439;50.804;4.602;2023-04-03T12:27:22;3.60;;;2.60;;
14698;SDS011;7439;50.804;4.602;2023-04-03T12:29:52;3.87;;;2.27;;
14698;SDS011;7439;50.804;4.602;2023-04-03T12:32:24;2.77;;;2.20;;
14698;SDS011;7439;50.804;4.602;2023-04-03T12:34:55;3.73;;;2.13;;
14698;SDS011;7439;50.804;4.602;2023-04-03T12:37:31;3.67;;;1.97;;
14698;SDS011;7439;50.804;4.602;2023-04-03T12:40:10;4.30;;;2.37;;
14698;SDS011;7439;50.804;4.602;2023-04-03T12:45:40;2.30;;;2.03;;
14698;SDS011;7439;50.804;4.602;2023-04-03T12:48:10;4.20;;;2.10;;
14698;SDS011;7439;50.804;4.602;2023-04-03T12:50:41;2.53;;;2.03;;
14698;SDS011;7439;50.804;4.602;2023-04-03T12:53:11;4.83;;;2.00;;
14698;SDS011;7439;50.804;4.602;2023-04-03T12:55:41;3.33;;;1.90;;
14698;SDS011;7439;50.804;4.602;2023-04-03T12:58:15;3.00;;;1.90;;
14698;SDS011;7439;50.804;4.602;2023-04-03T13:00:43;2.67;;;1.97;;
14698;SDS011;7439;50.804;4.602;2023-04-03T13:03:20;2.73;;;1.70;;
14698;SDS011;7439;50.804;4.602;2023-04-03T13:05:48;2.10;;;1.90;;
14698;SDS011;7439;50.804;4.602;2023-04-03T13:08:16;1.93;;;1.47;;
14698;SDS011;7439;50.804;4.602;2023-04-03T13:10:52;1.73;;;1.47;;
14698;SDS011;7439;50.804;4.602;2023-04-03T13:13:21;2.73;;;1.60;;
14698;SDS011;7439;50.804;4.602;2023-04-03T13:15:49;2.20;;;1.80;;
14698;SDS011;7439;50.804;4.602;2023-04-03T13:18:22;1.90;;;1.70;;
14698;SDS011;7439;50.804;4.602;2023-04-03T13:20:50;2.30;;;1.80;;
14698;SDS011;7439;50.804;4.602;2023-04-03T13:23:17;2.53;;;2.00;;
14698;SDS011;7439;50.804;4.602;2023-04-03T13:25:48;2.40;;;1.87;;
14698;SDS011;7439;50.804;4.602;2023-04-03T13:28:18;4.40;;;1.97;;
14698;SDS011;7439;50.804;4.602;2023-04-03T13:30:55;2.77;;;2.13;;
14698;SDS011;7439;50.804;4.602;2023-04-03T13:33:23;2.43;;;2.10;;
14698;SDS011;7439;50.804;4.602;2023-04-03T13:35:54;3.87;;;2.10;;
14698;SDS011;7439;50.804;4.602;2023-04-03T13:38:23;3.47;;;2.07;;
14698;SDS011;7439;50.804;4.602;2023-04-03T13:40:51;3.53;;;2.17;;
14698;SDS011;7439;50.804;4.602;2023-04-03T13:43:21;5.00;;;2.53;;
14698;SDS011;7439;50.804;4.602;2023-04-03T13:45:59;2.97;;;2.10;;
14698;SDS011;7439;50.804;4.602;2023-04-03T13:48:34;1.90;;;1.70;;
14698;SDS011;7439;50.804;4.602;2023-04-03T13:51:03;2.40;;;1.90;;
14698;SDS011;7439;50.804;4.602;2023-04-03T13:53:31;3.33;;;1.83;;
14698;SDS011;7439;50.804;4.602;2023-04-03T13:56:05;2.60;;;2.00;;
14698;SDS011;7439;50.804;4.602;2023-04-03T13:58:35;3.63;;;1.73;;
14698;SDS011;7439;50.804;4.602;2023-04-03T14:01:08;4.10;;;2.00;;
14698;SDS011;7439;50.804;4.602;2023-04-03T14:03:39;2.53;;;1.80;;
14698;SDS011;7439;50.804;4.602;2023-04-03T14:06:08;3.27;;;2.37;;
14698;SDS011;7439;50.804;4.602;2023-04-03T14:08:37;2.47;;;2.10;;
14698;SDS011;7439;50.804;4.602;2023-04-03T14:11:04;2.17;;;1.97;;
14698;SDS011;7439;50.804;4.602;2023-04-03T14:13:32;3.40;;;2.33;;
14698;SDS011;7439;50.804;4.602;2023-04-03T14:16:01;4.70;;;2.17;;
14698;SDS011;7439;50.804;4.602;2023-04-03T14:18:29;2.77;;;2.17;;
14698;SDS011;7439;50.804;4.602;2023-04-03T14:20:57;2.60;;;1.93;;
14698;SDS011;7439;50.804;4.602;2023-04-03T14:23:25;2.53;;;2.00;;
14698;SDS011;7439;50.804;4.602;2023-04-03T14:25:53;2.90;;;2.27;;
14698;SDS011;7439;50.804;4.602;2023-04-03T14:28:21;4.87;;;2.60;;
14698;SDS011;7439;50.804;4.602;2023-04-03T14:30:49;6.57;;;2.43;;
14698;SDS011;7439;50.804;4.602;2023-04-03T14:33:19;2.67;;;2.37;;
14698;SDS011;7439;50.804;4.602;2023-04-03T14:35:47;5.70;;;2.73;;
14698;SDS011;7439;50.804;4.602;2023-04-03T14:38:20;2.57;;;2.30;;
14698;SDS011;7439;50.804;4.602;2023-04-03T14:40:48;4.03;;;2.30;;
14698;SDS011;7439;50.804;4.602;2023-04-03T14:43:16;3.30;;;1.93;;
14698;SDS011;7439;50.804;4.602;2023-04-03T14:45:45;3.80;;;2.37;;
14698;SDS011;7439;50.804;4.602;2023-04-03T14:48:15;2.83;;;2.43;;
14698;SDS011;7439;50.804;4.602;2023-04-03T14:50:46;3.07;;;2.23;;
14698;SDS011;7439;50.804;4.602;2023-04-03T14:53:14;3.20;;;2.60;;
14698;SDS011;7439;50.804;4.602;2023-04-03T14:55:42;4.37;;;2.50;;
14698;SDS011;7439;50.804;4.602;2023-04-03T14:58:13;2.67;;;2.40;;
14698;SDS011;7439;50.804;4.602;2023-04-03T15:00:41;3.77;;;2.40;;
14698;SDS011;7439;50.804;4.602;2023-04-03T15:03:12;5.43;;;2.77;;
14698;SDS011;7439;50.804;4.602;2023-04-03T15:05:40;3.53;;;2.63;;
14698;SDS011;7439;50.804;4.602;2023-04-03T15:08:10;2.83;;;2.50;;
14698;SDS011;7439;50.804;4.602;2023-04-03T15:10:40;5.40;;;2.57;;
14698;SDS011;7439;50.804;4.602;2023-04-03T15:13:08;5.97;;;2.70;;